createdAt,value
2019-04-11T00:08:10.139Z,20.80
2019-04-11T00:21:16.995Z,20.80
2019-04-11T00:34:40.438Z,20.80
2019-04-11T00:48:03.819Z,20.80
2019-04-11T01:01:26.084Z,20.80
2019-04-11T01:14:49.024Z,20.70
2019-04-11T01:28:12.196Z,20.70
2019-04-11T01:41:34.513Z,20.70
2019-04-11T01:54:57.348Z,20.70
2019-04-11T02:08:20.158Z,20.70
2019-04-11T02:21:44.105Z,20.60
2019-04-11T02:35:07.547Z,20.60
2019-04-11T02:48:28.851Z,20.60
2019-04-11T03:15:09.323Z,20.60
2019-04-11T03:28:01.441Z,20.60
2019-04-11T03:41:25.352Z,20.50
2019-04-11T03:54:15.667Z,20.50
2019-04-11T04:07:23.354Z,20.50
2019-04-11T04:33:33.021Z,20.50
2019-04-11T04:46:52.656Z,20.50
2019-04-11T04:59:46.899Z,20.50
2019-04-11T05:12:54.893Z,20.50
2019-04-11T05:37:15.223Z,20.40
2019-04-11T05:50:36.720Z,20.00
2019-04-11T06:04:00.396Z,20.20
2019-04-11T06:17:22.397Z,20.30
2019-04-11T06:30:45.338Z,20.40
2019-04-11T06:44:08.806Z,20.40
2019-04-11T06:57:32.016Z,19.90
2019-04-11T07:10:53.612Z,19.90
2019-04-11T07:24:16.487Z,20.20
2019-04-11T07:37:40.541Z,20.30
2019-04-11T07:51:02.083Z,20.40
2019-04-11T08:04:24.879Z,20.40
2019-04-11T08:17:48.038Z,20.40
2019-04-11T08:31:11.021Z,20.50
2019-04-11T08:57:36.171Z,20.40
2019-04-11T09:10:42.449Z,20.40
2019-04-11T09:23:50.165Z,20.50
2019-04-11T09:36:57.489Z,20.50
2019-04-11T09:50:04.321Z,20.50
2019-04-11T10:03:11.060Z,20.50
2019-04-11T10:16:35.829Z,20.50
2019-04-11T10:29:57.559Z,20.50
2019-04-11T10:43:20.444Z,20.50
2019-04-11T10:56:43.345Z,20.40
2019-04-11T11:10:07.195Z,20.50
2019-04-11T11:23:29.027Z,20.40
2019-04-11T11:49:58.587Z,20.30
2019-04-11T12:03:01.904Z,20.30
2019-04-11T12:16:07.876Z,20.20
2019-04-11T12:29:15.441Z,20.30
2019-04-11T12:42:22.027Z,20.40
2019-04-11T12:55:29.162Z,20.50
2019-04-11T13:08:53.169Z,20.60
2019-04-11T13:22:15.961Z,20.60
2019-04-11T13:35:38.936Z,20.10
2019-04-11T13:49:02.114Z,20.40
2019-04-11T14:15:25.950Z,20.40
2019-04-11T14:28:33.252Z,20.40
2019-04-11T14:41:41.540Z,20.30
2019-04-11T14:54:48.971Z,20.30
2019-04-11T15:07:54.982Z,20.30
2019-04-11T15:21:02.117Z,20.30
2019-04-11T15:34:25.750Z,20.30
2019-04-11T16:00:50.273Z,20.30
2019-04-11T16:13:57.367Z,20.30
2019-04-11T16:27:04.539Z,20.30
2019-04-11T16:40:11.690Z,20.30
2019-04-11T16:53:18.863Z,20.40
2019-04-11T17:06:26.481Z,20.00
2019-04-11T17:19:49.947Z,20.20
2019-04-11T17:33:12.851Z,20.20
2019-04-11T17:46:35.586Z,20.30
2019-04-11T17:59:59.088Z,20.30
2019-04-11T18:13:21.204Z,20.30
2019-04-11T18:26:44.139Z,20.40
2019-04-11T18:40:10.168Z,20.20
2019-04-11T19:04:31.920Z,20.30
2019-04-11T19:43:56.134Z,20.90
2019-04-11T19:57:03.468Z,21.00
2019-04-11T20:10:10.824Z,21.10
2019-04-11T20:23:18.124Z,21.00
2019-04-11T20:49:28.039Z,20.90
2019-04-11T21:02:35.657Z,20.90
2019-04-11T21:15:42.968Z,20.80
2019-04-11T21:28:50.134Z,20.60
2019-04-11T21:55:00.174Z,20.50
2019-04-11T22:08:07.316Z,20.50
2019-04-11T22:21:15.418Z,20.40
2019-04-11T22:34:21.950Z,20.40
2019-04-11T22:47:29.137Z,20.40
2019-04-11T23:00:36.241Z,20.30
2019-04-11T23:14:00.002Z,20.30
2019-04-11T23:40:58.369Z,20.20
2019-04-11T23:54:05.504Z,20.20
